sensor_id;sensor_type;location;lat;lon;timestamp;P1;durP1;ratioP1;P2;durP2;ratioP2
1014;SDS011;8170;48.118;11.628;2022-08-19T00:00:21;6.30;;;5.80;;
1014;SDS011;8170;48.118;11.628;2022-08-19T00:01:24;6.68;;;6.07;;
1014;SDS011;8170;48.118;11.628;2022-08-19T00:02:30;5.90;;;5.43;;
1014;SDS011;8170;48.118;11.628;2022-08-19T00:03:33;6.85;;;6.25;;
1014;SDS011;8170;48.118;11.628;2022-08-19T00:04:36;5.97;;;5.47;;
1014;SDS011;8170;48.118;11.628;2022-08-19T00:05:38;6.10;;;5.60;;
1014;SDS011;8170;48.118;11.628;2022-08-19T00:06:44;6.20;;;5.60;;
1014;SDS011;8170;48.118;11.628;2022-08-19T00:07:47;6.47;;;5.70;;
1014;SDS011;8170;48.118;11.628;2022-08-19T00:08:52;6.13;;;5.63;;
1014;SDS011;8170;48.118;11.628;2022-08-19T00:09:55;7.30;;;6.35;;
1014;SDS011;8170;48.118;11.628;2022-08-19T00:10:58;6.88;;;6.38;;
1014;SDS011;8170;48.118;11.628;2022-08-19T00:12:00;7.10;;;6.40;;
1014;SDS011;8170;48.118;11.628;2022-08-19T00:13:03;6.13;;;5.55;;
1014;SDS011;8170;48.118;11.628;2022-08-19T00:14:06;5.55;;;5.05;;
1014;SDS011;8170;48.118;11.628;2022-08-19T00:15:11;6.05;;;5.55;;
1014;SDS011;8170;48.118;11.628;2022-08-19T00:16:15;6.97;;;6.38;;
1014;SDS011;8170;48.118;11.628;2022-08-19T00:17:25;5.90;;;5.30;;
1014;SDS011;8170;48.118;11.628;2022-08-19T00:18:27;6.88;;;6.28;;
1014;SDS011;8170;48.118;11.628;2022-08-19T00:19:30;7.47;;;6.88;;
1014;SDS011;8170;48.118;11.628;2022-08-19T00:20:33;6.63;;;6.13;;
1014;SDS011;8170;48.118;11.628;2022-08-19T00:21:36;6.30;;;5.80;;
1014;SDS011;8170;48.118;11.628;2022-08-19T00:22:41;6.40;;;5.90;;
1014;SDS011;8170;48.118;11.628;2022-08-19T00:23:45;6.20;;;5.60;;
1014;SDS011;8170;48.118;11.628;2022-08-19T00:24:48;6.25;;;5.75;;
1014;SDS011;8170;48.118;11.628;2022-08-19T00:25:52;6.22;;;5.60;;
1014;SDS011;8170;48.118;11.628;2022-08-19T00:26:54;6.25;;;5.75;;
1014;SDS011;8170;48.118;11.628;2022-08-19T00:28:18;6.80;;;6.30;;
1014;SDS011;8170;48.118;11.628;2022-08-19T00:29:22;5.70;;;5.30;;
1014;SDS011;8170;48.118;11.628;2022-08-19T00:30:25;7.07;;;6.47;;
1014;SDS011;8170;48.118;11.628;2022-08-19T00:31:29;6.90;;;6.30;;
1014;SDS011;8170;48.118;11.628;2022-08-19T00:32:33;6.70;;;6.20;;
1014;SDS011;8170;48.118;11.628;2022-08-19T00:33:36;6.43;;;5.93;;
1014;SDS011;8170;48.118;11.628;2022-08-19T00:34:39;8.13;;;7.43;;
1014;SDS011;8170;48.118;11.628;2022-08-19T00:35:42;6.05;;;5.55;;
1014;SDS011;8170;48.118;11.628;2022-08-19T00:36:44;6.65;;;6.15;;
1014;SDS011;8170;48.118;11.628;2022-08-19T00:37:48;6.90;;;6.30;;
1014;SDS011;8170;48.118;11.628;2022-08-19T00:38:51;6.50;;;5.90;;
1014;SDS011;8170;48.118;11.628;2022-08-19T00:39:55;6.50;;;5.90;;
1014;SDS011;8170;48.118;11.628;2022-08-19T00:40:58;7.75;;;5.88;;
1014;SDS011;8170;48.118;11.628;2022-08-19T00:42:01;7.38;;;6.78;;
1014;SDS011;8170;48.118;11.628;2022-08-19T00:43:07;6.72;;;6.22;;
1014;SDS011;8170;48.118;11.628;2022-08-19T00:44:11;7.43;;;6.82;;
1014;SDS011;8170;48.118;11.628;2022-08-19T00:45:17;6.57;;;6.07;;
1014;SDS011;8170;48.118;11.628;2022-08-19T00:46:26;6.68;;;6.07;;
1014;SDS011;8170;48.118;11.628;2022-08-19T00:47:29;8.55;;;7.85;;
1014;SDS011;8170;48.118;11.628;2022-08-19T00:48:33;6.68;;;6.15;;
1014;SDS011;8170;48.118;11.628;2022-08-19T00:49:36;8.15;;;7.50;;
1014;SDS011;8170;48.118;11.628;2022-08-19T00:50:44;7.22;;;6.57;;
1014;SDS011;8170;48.118;11.628;2022-08-19T00:51:54;7.88;;;7.25;;
1014;SDS011;8170;48.118;11.628;2022-08-19T00:53:02;7.32;;;6.65;;
1014;SDS011;8170;48.118;11.628;2022-08-19T00:54:05;8.55;;;7.80;;
1014;SDS011;8170;48.118;11.628;2022-08-19T00:55:09;8.07;;;7.35;;
1014;SDS011;8170;48.118;11.628;2022-08-19T00:56:13;7.07;;;6.47;;
1014;SDS011;8170;48.118;11.628;2022-08-19T00:57:18;7.38;;;6.78;;
1014;SDS011;8170;48.118;11.628;2022-08-19T00:58:29;7.43;;;6.85;;
1014;SDS011;8170;48.118;11.628;2022-08-19T00:59:33;7.60;;;7.00;;
1014;SDS011;8170;48.118;11.628;2022-08-19T01:00:59;7.93;;;7.22;;
1014;SDS011;8170;48.118;11.628;2022-08-19T01:02:03;7.40;;;6.80;;
1014;SDS011;8170;48.118;11.628;2022-08-19T01:03:06;7.43;;;6.82;;
1014;SDS011;8170;48.118;11.628;2022-08-19T01:04:11;7.40;;;6.70;;
1014;SDS011;8170;48.118;11.628;2022-08-19T01:05:14;7.82;;;7.20;;
1014;SDS011;8170;48.118;11.628;2022-08-19T01:06:22;7.63;;;6.90;;
1014;SDS011;8170;48.118;11.628;2022-08-19T01:07:24;8.73;;;7.95;;
1014;SDS011;8170;48.118;11.628;2022-08-19T01:08:27;8.88;;;8.02;;
1014;SDS011;8170;48.118;11.628;2022-08-19T01:09:29;8.60;;;7.90;;
1014;SDS011;8170;48.118;11.628;2022-08-19T01:10:35;9.10;;;8.32;;
1014;SDS011;8170;48.118;11.628;2022-08-19T01:11:41;7.88;;;7.18;;
1014;SDS011;8170;48.118;11.628;2022-08-19T01:12:47;8.93;;;8.20;;
1014;SDS011;8170;48.118;11.628;2022-08-19T01:13:50;9.23;;;8.43;;
1014;SDS011;8170;48.118;11.628;2022-08-19T01:14:55;7.80;;;7.20;;
1014;SDS011;8170;48.118;11.628;2022-08-19T01:16:00;9.57;;;8.70;;
1014;SDS011;8170;48.118;11.628;2022-08-19T01:17:06;9.45;;;8.55;;
1014;SDS011;8170;48.118;11.628;2022-08-19T01:18:11;9.20;;;8.40;;
1014;SDS011;8170;48.118;11.628;2022-08-19T01:19:17;9.65;;;8.85;;
1014;SDS011;8170;48.118;11.628;2022-08-19T01:20:26;9.45;;;8.68;;
1014;SDS011;8170;48.118;11.628;2022-08-19T01:21:30;10.00;;;9.00;;
1014;SDS011;8170;48.118;11.628;2022-08-19T01:22:37;10.10;;;9.30;;
1014;SDS011;8170;48.118;11.628;2022-08-19T01:23:44;9.90;;;8.95;;
1014;SDS011;8170;48.118;11.628;2022-08-19T01:24:47;10.55;;;9.70;;
1014;SDS011;8170;48.118;11.628;2022-08-19T01:25:52;10.20;;;9.40;;
1014;SDS011;8170;48.118;11.628;2022-08-19T01:26:56;10.70;;;9.70;;
1014;SDS011;8170;48.118;11.628;2022-08-19T01:27:59;9.40;;;8.60;;
1014;SDS011;8170;48.118;11.628;2022-08-19T01:29:11;10.10;;;9.23;;
1014;SDS011;8170;48.118;11.628;2022-08-19T01:30:16;11.05;;;10.05;;
1014;SDS011;8170;48.118;11.628;2022-08-19T01:31:21;8.52;;;7.82;;
1014;SDS011;8170;48.118;11.628;2022-08-19T01:32:28;9.60;;;8.80;;
1014;SDS011;8170;48.118;11.628;2022-08-19T01:33:34;9.45;;;8.75;;
1014;SDS011;8170;48.118;11.628;2022-08-19T01:34:37;10.60;;;9.60;;
1014;SDS011;8170;48.118;11.628;2022-08-19T01:35:40;8.93;;;8.18;;
1014;SDS011;8170;48.118;11.628;2022-08-19T01:36:45;9.30;;;8.50;;
1014;SDS011;8170;48.118;11.628;2022-08-19T01:37:50;8.98;;;8.18;;
1014;SDS011;8170;48.118;11.628;2022-08-19T01:38:55;7.75;;;7.07;;
1014;SDS011;8170;48.118;11.628;2022-08-19T01:39:59;8.55;;;7.82;;
1014;SDS011;8170;48.118;11.628;2022-08-19T01:41:09;9.73;;;8.93;;
1014;SDS011;8170;48.118;11.628;2022-08-19T01:42:12;9.80;;;8.85;;
1014;SDS011;8170;48.118;11.628;2022-08-19T01:43:15;8.68;;;7.97;;
1014;SDS011;8170;48.118;11.628;2022-08-19T01:44:17;10.27;;;9.10;;
1014;SDS011;8170;48.118;11.628;2022-08-19T01:45:22;9.98;;;9.18;;
1014;SDS011;8170;48.118;11.628;2022-08-19T01:46:26;9.75;;;8.82;;
1014;SDS011;8170;48.118;11.628;2022-08-19T01:47:29;9.65;;;8.85;;
1014;SDS011;8170;48.118;11.628;2022-08-19T01:48:36;9.43;;;8.50;;
1014;SDS011;8170;48.118;11.628;2022-08-19T01:49:40;10.38;;;9.48;;
1014;SDS011;8170;48.118;11.628;2022-08-19T01:50:42;9.60;;;8.80;;
1014;SDS011;8170;48.118;11.628;2022-08-19T01:51:46;8.05;;;7.35;;
1014;SDS011;8170;48.118;11.628;2022-08-19T01:52:50;9.10;;;8.15;;
1014;SDS011;8170;48.118;11.628;2022-08-19T01:54:04;9.40;;;8.50;;
1014;SDS011;8170;48.118;11.628;2022-08-19T01:55:08;8.75;;;7.85;;
1014;SDS011;8170;48.118;11.628;2022-08-19T01:56:13;8.05;;;7.25;;
1014;SDS011;8170;48.118;11.628;2022-08-19T01:57:16;9.73;;;8.93;;
1014;SDS011;8170;48.118;11.628;2022-08-19T01:58:19;9.25;;;8.45;;
1014;SDS011;8170;48.118;11.628;2022-08-19T01:59:26;7.93;;;7.32;;
1014;SDS011;8170;48.118;11.628;2022-08-19T02:00:30;7.85;;;7.20;;
1014;SDS011;8170;48.118;11.628;2022-08-19T02:01:34;8.18;;;7.55;;
1014;SDS011;8170;48.118;11.628;2022-08-19T02:02:36;8.60;;;7.80;;
1014;SDS011;8170;48.118;11.628;2022-08-19T02:03:40;8.25;;;7.55;;
1014;SDS011;8170;48.118;11.628;2022-08-19T02:04:42;7.90;;;7.20;;
1014;SDS011;8170;48.118;11.628;2022-08-19T02:05:47;8.13;;;7.53;;
1014;SDS011;8170;48.118;11.628;2022-08-19T02:06:49;8.00;;;7.30;;
1014;SDS011;8170;48.118;11.628;2022-08-19T02:07:54;8.20;;;7.50;;
1014;SDS011;8170;48.118;11.628;2022-08-19T02:08:56;8.60;;;7.22;;
1014;SDS011;8170;48.118;11.628;2022-08-19T02:10:00;7.18;;;6.57;;
1014;SDS011;8170;48.118;11.628;2022-08-19T02:11:09;6.90;;;6.40;;
1014;SDS011;8170;48.118;11.628;2022-08-19T02:12:22;7.63;;;6.97;;
1014;SDS011;8170;48.118;11.628;2022-08-19T02:13:24;8.55;;;7.85;;
1014;SDS011;8170;48.118;11.628;2022-08-19T02:14:28;9.25;;;8.45;;
1014;SDS011;8170;48.118;11.628;2022-08-19T02:15:30;9.70;;;8.88;;
1014;SDS011;8170;48.118;11.628;2022-08-19T02:16:33;8.43;;;7.72;;
1014;SDS011;8170;48.118;11.628;2022-08-19T02:17:36;8.05;;;7.25;;
1014;SDS011;8170;48.118;11.628;2022-08-19T02:18:41;8.23;;;7.53;;
1014;SDS011;8170;48.118;11.628;2022-08-19T02:19:43;8.70;;;8.00;;
1014;SDS011;8170;48.118;11.628;2022-08-19T02:20:46;8.30;;;7.60;;
1014;SDS011;8170;48.118;11.628;2022-08-19T02:21:49;8.05;;;7.40;;
1014;SDS011;8170;48.118;11.628;2022-08-19T02:22:53;7.70;;;7.10;;
1014;SDS011;8170;48.118;11.628;2022-08-19T02:23:56;8.65;;;7.95;;
1014;SDS011;8170;48.118;11.628;2022-08-19T02:25:27;7.40;;;6.80;;
1014;SDS011;8170;48.118;11.628;2022-08-19T02:26:46;7.65;;;6.95;;
1014;SDS011;8170;48.118;11.628;2022-08-19T02:28:06;8.13;;;7.32;;
1014;SDS011;8170;48.118;11.628;2022-08-19T02:29:33;7.00;;;6.40;;
1014;SDS011;8170;48.118;11.628;2022-08-19T02:31:29;8.30;;;7.60;;
1014;SDS011;8170;48.118;11.628;2022-08-19T02:33:11;7.38;;;6.78;;
1014;SDS011;8170;48.118;11.628;2022-08-19T02:34:34;8.13;;;7.43;;
1014;SDS011;8170;48.118;11.628;2022-08-19T02:35:53;7.80;;;7.10;;
1014;SDS011;8170;48.118;11.628;2022-08-19T02:37:16;7.63;;;7.03;;
1014;SDS011;8170;48.118;11.628;2022-08-19T02:40:30;8.18;;;7.47;;
1014;SDS011;8170;48.118;11.628;2022-08-19T02:42:13;6.55;;;5.95;;
1014;SDS011;8170;48.118;11.628;2022-08-19T02:43:38;6.93;;;6.30;;
1014;SDS011;8170;48.118;11.628;2022-08-19T02:45:07;6.85;;;6.35;;
1014;SDS011;8170;48.118;11.628;2022-08-19T02:46:39;7.20;;;6.60;;
1014;SDS011;8170;48.118;11.628;2022-08-19T02:48:25;7.18;;;6.63;;
1014;SDS011;8170;48.118;11.628;2022-08-19T02:50:03;7.40;;;6.70;;
1014;SDS011;8170;48.118;11.628;2022-08-19T02:51:52;7.10;;;6.50;;
1014;SDS011;8170;48.118;11.628;2022-08-19T02:53:16;7.75;;;7.05;;
1014;SDS011;8170;48.118;11.628;2022-08-19T02:55:00;7.80;;;7.20;;
1014;SDS011;8170;48.118;11.628;2022-08-19T02:56:23;7.05;;;6.45;;
1014;SDS011;8170;48.118;11.628;2022-08-19T02:58:23;6.95;;;6.35;;
1014;SDS011;8170;48.118;11.628;2022-08-19T02:59:49;6.90;;;6.30;;
1014;SDS011;8170;48.118;11.628;2022-08-19T03:02:09;6.30;;;5.80;;
1014;SDS011;8170;48.118;11.628;2022-08-19T03:03:45;7.15;;;6.45;;
1014;SDS011;8170;48.118;11.628;2022-08-19T03:05:01;7.60;;;6.90;;
1014;SDS011;8170;48.118;11.628;2022-08-19T03:06:17;7.70;;;7.00;;
1014;SDS011;8170;48.118;11.628;2022-08-19T03:07:50;7.72;;;7.03;;
1014;SDS011;8170;48.118;11.628;2022-08-19T03:09:17;7.20;;;6.55;;
1014;SDS011;8170;48.118;11.628;2022-08-19T03:12:44;7.40;;;6.70;;
1014;SDS011;8170;48.118;11.628;2022-08-19T03:14:13;6.32;;;5.70;;
1014;SDS011;8170;48.118;11.628;2022-08-19T03:15:44;7.10;;;6.40;;
1014;SDS011;8170;48.118;11.628;2022-08-19T03:16:58;6.10;;;5.60;;
1014;SDS011;8170;48.118;11.628;2022-08-19T03:20:48;7.18;;;6.57;;
1014;SDS011;8170;48.118;11.628;2022-08-19T03:22:20;6.38;;;5.88;;
1014;SDS011;8170;48.118;11.628;2022-08-19T03:24:05;8.30;;;7.60;;
1014;SDS011;8170;48.118;11.628;2022-08-19T03:25:40;7.30;;;6.68;;
1014;SDS011;8170;48.118;11.628;2022-08-19T03:26:51;7.60;;;6.90;;
1014;SDS011;8170;48.118;11.628;2022-08-19T03:28:16;6.20;;;5.70;;
1014;SDS011;8170;48.118;11.628;2022-08-19T03:29:41;7.68;;;7.00;;
1014;SDS011;8170;48.118;11.628;2022-08-19T03:31:17;7.50;;;6.90;;
1014;SDS011;8170;48.118;11.628;2022-08-19T03:32:59;6.57;;;5.90;;
1014;SDS011;8170;48.118;11.628;2022-08-19T03:34:51;6.50;;;6.00;;
1014;SDS011;8170;48.118;11.628;2022-08-19T03:36:23;7.10;;;6.50;;
1014;SDS011;8170;48.118;11.628;2022-08-19T03:38:01;7.32;;;6.72;;
1014;SDS011;8170;48.118;11.628;2022-08-19T03:39:17;7.80;;;7.20;;
1014;SDS011;8170;48.118;11.628;2022-08-19T03:40:39;7.90;;;7.20;;
1014;SDS011;8170;48.118;11.628;2022-08-19T03:41:53;7.40;;;6.80;;
1014;SDS011;8170;48.118;11.628;2022-08-19T03:43:25;8.65;;;6.80;;
1014;SDS011;8170;48.118;11.628;2022-08-19T03:44:29;6.85;;;6.35;;
1014;SDS011;8170;48.118;11.628;2022-08-19T03:45:33;7.07;;;6.47;;
1014;SDS011;8170;48.118;11.628;2022-08-19T03:46:36;7.57;;;6.97;;
1014;SDS011;8170;48.118;11.628;2022-08-19T03:47:42;7.85;;;7.15;;
1014;SDS011;8170;48.118;11.628;2022-08-19T03:48:47;7.65;;;7.03;;
1014;SDS011;8170;48.118;11.628;2022-08-19T03:49:50;7.43;;;6.82;;
1014;SDS011;8170;48.118;11.628;2022-08-19T03:50:53;7.80;;;7.10;;
1014;SDS011;8170;48.118;11.628;2022-08-19T03:51:55;7.18;;;6.57;;
1014;SDS011;8170;48.118;11.628;2022-08-19T03:53:01;7.90;;;7.10;;
1014;SDS011;8170;48.118;11.628;2022-08-19T03:54:05;7.63;;;6.97;;
1014;SDS011;8170;48.118;11.628;2022-08-19T03:55:10;8.57;;;7.65;;
1014;SDS011;8170;48.118;11.628;2022-08-19T03:56:12;7.10;;;6.50;;
1014;SDS011;8170;48.118;11.628;2022-08-19T03:57:17;6.47;;;5.95;;
1014;SDS011;8170;48.118;11.628;2022-08-19T03:58:20;8.40;;;7.60;;
1014;SDS011;8170;48.118;11.628;2022-08-19T03:59:23;10.07;;;7.72;;
1014;SDS011;8170;48.118;11.628;2022-08-19T04:00:28;8.30;;;7.60;;
1014;SDS011;8170;48.118;11.628;2022-08-19T04:01:31;8.30;;;6.65;;
1014;SDS011;8170;48.118;11.628;2022-08-19T04:02:36;7.40;;;6.80;;
1014;SDS011;8170;48.118;11.628;2022-08-19T04:03:39;8.13;;;7.43;;
1014;SDS011;8170;48.118;11.628;2022-08-19T04:04:42;7.13;;;6.47;;
1014;SDS011;8170;48.118;11.628;2022-08-19T04:05:46;7.05;;;6.45;;
1014;SDS011;8170;48.118;11.628;2022-08-19T04:06:49;7.07;;;6.47;;
1014;SDS011;8170;48.118;11.628;2022-08-19T04:07:52;6.90;;;6.40;;
1014;SDS011;8170;48.118;11.628;2022-08-19T04:08:54;6.18;;;5.68;;
1014;SDS011;8170;48.118;11.628;2022-08-19T04:09:59;5.85;;;5.35;;
1014;SDS011;8170;48.118;11.628;2022-08-19T04:11:05;7.38;;;6.78;;
1014;SDS011;8170;48.118;11.628;2022-08-19T04:12:09;8.13;;;7.32;;
1014;SDS011;8170;48.118;11.628;2022-08-19T04:13:13;6.82;;;6.22;;
1014;SDS011;8170;48.118;11.628;2022-08-19T04:14:17;8.32;;;7.60;;
1014;SDS011;8170;48.118;11.628;2022-08-19T04:15:22;7.35;;;6.70;;
1014;SDS011;8170;48.118;11.628;2022-08-19T04:16:28;6.75;;;6.15;;
1014;SDS011;8170;48.118;11.628;2022-08-19T04:17:35;5.70;;;5.20;;
1014;SDS011;8170;48.118;11.628;2022-08-19T04:18:39;6.43;;;5.82;;
1014;SDS011;8170;48.118;11.628;2022-08-19T04:19:42;6.80;;;6.20;;
1014;SDS011;8170;48.118;11.628;2022-08-19T04:20:46;5.88;;;5.38;;
1014;SDS011;8170;48.118;11.628;2022-08-19T04:21:51;5.45;;;4.95;;
1014;SDS011;8170;48.118;11.628;2022-08-19T04:22:56;6.40;;;5.88;;
1014;SDS011;8170;48.118;11.628;2022-08-19T04:23:58;8.15;;;7.40;;
1014;SDS011;8170;48.118;11.628;2022-08-19T04:25:04;6.88;;;6.28;;
1014;SDS011;8170;48.118;11.628;2022-08-19T04:26:11;6.82;;;6.22;;
1014;SDS011;8170;48.118;11.628;2022-08-19T04:27:15;8.55;;;6.43;;
1014;SDS011;8170;48.118;11.628;2022-08-19T04:28:19;6.90;;;6.15;;
1014;SDS011;8170;48.118;11.628;2022-08-19T04:29:23;7.55;;;6.85;;
1014;SDS011;8170;48.118;11.628;2022-08-19T04:30:28;7.25;;;6.65;;
1014;SDS011;8170;48.118;11.628;2022-08-19T04:31:31;7.20;;;6.60;;
1014;SDS011;8170;48.118;11.628;2022-08-19T04:32:36;7.88;;;7.18;;
1014;SDS011;8170;48.118;11.628;2022-08-19T04:33:38;7.75;;;7.13;;
1014;SDS011;8170;48.118;11.628;2022-08-19T04:34:42;7.30;;;6.70;;
1014;SDS011;8170;48.118;11.628;2022-08-19T04:36:03;6.95;;;6.35;;
1014;SDS011;8170;48.118;11.628;2022-08-19T04:37:06;8.43;;;6.90;;
1014;SDS011;8170;48.118;11.628;2022-08-19T04:38:13;8.13;;;7.25;;
1014;SDS011;8170;48.118;11.628;2022-08-19T04:39:18;7.60;;;6.95;;
1014;SDS011;8170;48.118;11.628;2022-08-19T04:40:22;8.70;;;8.00;;
1014;SDS011;8170;48.118;11.628;2022-08-19T04:41:43;7.75;;;7.05;;
1014;SDS011;8170;48.118;11.628;2022-08-19T04:43:04;6.15;;;5.65;;
1014;SDS011;8170;48.118;11.628;2022-08-19T04:44:09;8.10;;;7.30;;
1014;SDS011;8170;48.118;11.628;2022-08-19T04:45:12;8.23;;;7.53;;
1014;SDS011;8170;48.118;11.628;2022-08-19T04:46:17;7.80;;;7.20;;
1014;SDS011;8170;48.118;11.628;2022-08-19T04:47:41;9.45;;;7.78;;
1014;SDS011;8170;48.118;11.628;2022-08-19T04:49:03;7.15;;;6.45;;
1014;SDS011;8170;48.118;11.628;2022-08-19T04:50:14;7.47;;;6.78;;
1014;SDS011;8170;48.118;11.628;2022-08-19T04:51:19;7.78;;;6.72;;
1014;SDS011;8170;48.118;11.628;2022-08-19T04:52:21;8.05;;;7.25;;
1014;SDS011;8170;48.118;11.628;2022-08-19T04:53:26;7.50;;;6.80;;
1014;SDS011;8170;48.118;11.628;2022-08-19T04:54:38;8.50;;;7.70;;
1014;SDS011;8170;48.118;11.628;2022-08-19T04:55:40;9.73;;;8.93;;
1014;SDS011;8170;48.118;11.628;2022-08-19T04:56:44;8.18;;;7.47;;
1014;SDS011;8170;48.118;11.628;2022-08-19T04:57:46;9.20;;;8.25;;
1014;SDS011;8170;48.118;11.628;2022-08-19T04:58:50;8.88;;;8.07;;
1014;SDS011;8170;48.118;11.628;2022-08-19T04:59:54;7.95;;;7.20;;
1014;SDS011;8170;48.118;11.628;2022-08-19T05:01:01;6.93;;;6.22;;
1014;SDS011;8170;48.118;11.628;2022-08-19T05:02:03;7.70;;;6.90;;
1014;SDS011;8170;48.118;11.628;2022-08-19T05:03:09;6.53;;;5.80;;
1014;SDS011;8170;48.118;11.628;2022-08-19T05:04:11;6.60;;;6.05;;
1014;SDS011;8170;48.118;11.628;2022-08-19T05:05:14;7.13;;;6.53;;
1014;SDS011;8170;48.118;11.628;2022-08-19T05:06:18;6.35;;;5.85;;
1014;SDS011;8170;48.118;11.628;2022-08-19T05:07:22;6.47;;;5.88;;
1014;SDS011;8170;48.118;11.628;2022-08-19T05:08:24;6.18;;;5.40;;
1014;SDS011;8170;48.118;11.628;2022-08-19T05:09:31;6.38;;;5.72;;
1014;SDS011;8170;48.118;11.628;2022-08-19T05:10:54;5.22;;;4.82;;
1014;SDS011;8170;48.118;11.628;2022-08-19T05:11:58;5.95;;;5.35;;
1014;SDS011;8170;48.118;11.628;2022-08-19T05:13:01;6.63;;;6.03;;
1014;SDS011;8170;48.118;11.628;2022-08-19T05:14:04;5.93;;;5.43;;
1014;SDS011;8170;48.118;11.628;2022-08-19T05:15:10;5.88;;;5.38;;
1014;SDS011;8170;48.118;11.628;2022-08-19T05:16:13;5.72;;;5.22;;
1014;SDS011;8170;48.118;11.628;2022-08-19T05:17:17;6.45;;;5.95;;
1014;SDS011;8170;48.118;11.628;2022-08-19T05:18:30;6.75;;;6.15;;
1014;SDS011;8170;48.118;11.628;2022-08-19T05:19:51;6.65;;;6.15;;
1014;SDS011;8170;48.118;11.628;2022-08-19T05:21:16;6.60;;;6.05;;
1014;SDS011;8170;48.118;11.628;2022-08-19T05:22:38;5.78;;;5.28;;
1014;SDS011;8170;48.118;11.628;2022-08-19T05:23:41;6.28;;;5.78;;
1014;SDS011;8170;48.118;11.628;2022-08-19T05:24:43;6.97;;;6.38;;
1014;SDS011;8170;48.118;11.628;2022-08-19T05:26:06;6.80;;;6.20;;
1014;SDS011;8170;48.118;11.628;2022-08-19T05:27:10;5.97;;;5.38;;
1014;SDS011;8170;48.118;11.628;2022-08-19T05:28:12;6.88;;;6.20;;
1014;SDS011;8170;48.118;11.628;2022-08-19T05:29:17;7.40;;;6.70;;
1014;SDS011;8170;48.118;11.628;2022-08-19T05:30:24;7.25;;;6.55;;
1014;SDS011;8170;48.118;11.628;2022-08-19T05:31:47;5.88;;;5.40;;
1014;SDS011;8170;48.118;11.628;2022-08-19T05:32:50;6.70;;;6.05;;
1014;SDS011;8170;48.118;11.628;2022-08-19T05:33:55;6.20;;;5.70;;
1014;SDS011;8170;48.118;11.628;2022-08-19T05:34:59;5.80;;;5.32;;
1014;SDS011;8170;48.118;11.628;2022-08-19T05:36:02;6.82;;;6.22;;
1014;SDS011;8170;48.118;11.628;2022-08-19T05:37:06;6.07;;;5.50;;
1014;SDS011;8170;48.118;11.628;2022-08-19T05:38:10;6.15;;;5.65;;
1014;SDS011;8170;48.118;11.628;2022-08-19T05:39:14;5.40;;;5.00;;
1014;SDS011;8170;48.118;11.628;2022-08-19T05:40:19;5.80;;;5.30;;
1014;SDS011;8170;48.118;11.628;2022-08-19T05:41:23;6.57;;;5.95;;
1014;SDS011;8170;48.118;11.628;2022-08-19T05:42:31;5.60;;;5.10;;
1014;SDS011;8170;48.118;11.628;2022-08-19T05:43:34;7.13;;;6.53;;
1014;SDS011;8170;48.118;11.628;2022-08-19T05:44:37;7.60;;;6.90;;
1014;SDS011;8170;48.118;11.628;2022-08-19T05:45:46;7.88;;;7.18;;
1014;SDS011;8170;48.118;11.628;2022-08-19T05:46:48;6.13;;;5.63;;
1014;SDS011;8170;48.118;11.628;2022-08-19T05:47:54;7.28;;;6.57;;
1014;SDS011;8170;48.118;11.628;2022-08-19T05:48:56;8.27;;;7.57;;
1014;SDS011;8170;48.118;11.628;2022-08-19T05:49:59;7.72;;;7.03;;
1014;SDS011;8170;48.118;11.628;2022-08-19T05:51:05;8.27;;;7.47;;
1014;SDS011;8170;48.118;11.628;2022-08-19T05:52:10;7.35;;;6.75;;
1014;SDS011;8170;48.118;11.628;2022-08-19T05:53:13;7.75;;;7.15;;
1014;SDS011;8170;48.118;11.628;2022-08-19T05:54:17;6.70;;;5.95;;
1014;SDS011;8170;48.118;11.628;2022-08-19T05:55:20;7.47;;;6.78;;
1014;SDS011;8170;48.118;11.628;2022-08-19T05:56:24;8.07;;;7.30;;
1014;SDS011;8170;48.118;11.628;2022-08-19T05:57:27;7.30;;;6.60;;
1014;SDS011;8170;48.118;11.628;2022-08-19T05:58:31;8.43;;;7.70;;
1014;SDS011;8170;48.118;11.628;2022-08-19T05:59:33;8.60;;;7.80;;
1014;SDS011;8170;48.118;11.628;2022-08-19T06:00:39;7.35;;;6.65;;
1014;SDS011;8170;48.118;11.628;2022-08-19T06:01:47;8.10;;;7.40;;
1014;SDS011;8170;48.118;11.628;2022-08-19T06:02:52;7.82;;;7.03;;
1014;SDS011;8170;48.118;11.628;2022-08-19T06:03:57;8.55;;;7.75;;
1014;SDS011;8170;48.118;11.628;2022-08-19T06:05:01;8.02;;;7.32;;
1014;SDS011;8170;48.118;11.628;2022-08-19T06:06:04;8.00;;;7.30;;
1014;SDS011;8170;48.118;11.628;2022-08-19T06:07:09;7.40;;;6.80;;
1014;SDS011;8170;48.118;11.628;2022-08-19T06:08:13;9.70;;;8.80;;
1014;SDS011;8170;48.118;11.628;2022-08-19T06:09:16;8.50;;;7.70;;
1014;SDS011;8170;48.118;11.628;2022-08-19T06:10:19;10.57;;;9.60;;
1014;SDS011;8170;48.118;11.628;2022-08-19T06:11:23;8.57;;;7.78;;
1014;SDS011;8170;48.118;11.628;2022-08-19T06:12:34;9.50;;;8.70;;
1014;SDS011;8170;48.118;11.628;2022-08-19T06:13:37;8.40;;;7.70;;
1014;SDS011;8170;48.118;11.628;2022-08-19T06:14:39;9.38;;;8.48;;
1014;SDS011;8170;48.118;11.628;2022-08-19T06:15:43;8.23;;;7.43;;
1014;SDS011;8170;48.118;11.628;2022-08-19T06:16:47;8.82;;;8.02;;
1014;SDS011;8170;48.118;11.628;2022-08-19T06:17:50;8.27;;;7.47;;
1014;SDS011;8170;48.118;11.628;2022-08-19T06:18:52;9.05;;;8.15;;
1014;SDS011;8170;48.118;11.628;2022-08-19T06:19:56;10.88;;;9.80;;
1014;SDS011;8170;48.118;11.628;2022-08-19T06:20:59;9.52;;;8.63;;
1014;SDS011;8170;48.118;11.628;2022-08-19T06:22:05;9.07;;;8.18;;
1014;SDS011;8170;48.118;11.628;2022-08-19T06:23:08;8.38;;;7.68;;
1014;SDS011;8170;48.118;11.628;2022-08-19T06:24:17;9.13;;;8.27;;
1014;SDS011;8170;48.118;11.628;2022-08-19T06:25:22;10.13;;;9.32;;
1014;SDS011;8170;48.118;11.628;2022-08-19T06:26:30;9.50;;;8.70;;
1014;SDS011;8170;48.118;11.628;2022-08-19T06:27:35;8.07;;;7.32;;
1014;SDS011;8170;48.118;11.628;2022-08-19T06:28:53;9.50;;;8.70;;
1014;SDS011;8170;48.118;11.628;2022-08-19T06:29:55;9.60;;;8.70;;
1014;SDS011;8170;48.118;11.628;2022-08-19T06:30:58;9.05;;;8.20;;
1014;SDS011;8170;48.118;11.628;2022-08-19T06:32:08;11.75;;;10.70;;
1014;SDS011;8170;48.118;11.628;2022-08-19T06:33:12;9.50;;;8.70;;
1014;SDS011;8170;48.118;11.628;2022-08-19T06:34:14;8.50;;;7.80;;
1014;SDS011;8170;48.118;11.628;2022-08-19T06:35:19;8.45;;;7.63;;
1014;SDS011;8170;48.118;11.628;2022-08-19T06:36:22;9.20;;;8.40;;
1014;SDS011;8170;48.118;11.628;2022-08-19T06:37:28;10.60;;;9.60;;
1014;SDS011;8170;48.118;11.628;2022-08-19T06:38:31;10.40;;;9.40;;
1014;SDS011;8170;48.118;11.628;2022-08-19T06:39:38;10.05;;;9.05;;
1014;SDS011;8170;48.118;11.628;2022-08-19T06:40:46;10.13;;;9.25;;
1014;SDS011;8170;48.118;11.628;2022-08-19T06:41:48;11.20;;;10.30;;
1014;SDS011;8170;48.118;11.628;2022-08-19T06:42:58;10.27;;;9.27;;
1014;SDS011;8170;48.118;11.628;2022-08-19T06:44:06;11.73;;;10.63;;
1014;SDS011;8170;48.118;11.628;2022-08-19T06:45:13;11.35;;;10.35;;
1014;SDS011;8170;48.118;11.628;2022-08-19T06:46:17;10.63;;;9.73;;
1014;SDS011;8170;48.118;11.628;2022-08-19T06:47:22;12.00;;;10.80;;
1014;SDS011;8170;48.118;11.628;2022-08-19T06:48:29;10.25;;;9.35;;
1014;SDS011;8170;48.118;11.628;2022-08-19T06:49:33;10.57;;;9.55;;
1014;SDS011;8170;48.118;11.628;2022-08-19T06:50:37;9.80;;;9.00;;
1014;SDS011;8170;48.118;11.628;2022-08-19T06:51:41;10.82;;;9.82;;
1014;SDS011;8170;48.118;11.628;2022-08-19T06:52:45;13.35;;;12.13;;
1014;SDS011;8170;48.118;11.628;2022-08-19T06:53:50;11.93;;;10.88;;
1014;SDS011;8170;48.118;11.628;2022-08-19T06:54:57;16.17;;;14.57;;
1014;SDS011;8170;48.118;11.628;2022-08-19T06:56:01;13.57;;;12.38;;
1014;SDS011;8170;48.118;11.628;2022-08-19T06:57:04;11.15;;;10.15;;
1014;SDS011;8170;48.118;11.628;2022-08-19T06:58:07;16.17;;;12.85;;
1014;SDS011;8170;48.118;11.628;2022-08-19T06:59:11;12.90;;;11.70;;
1014;SDS011;8170;48.118;11.628;2022-08-19T07:00:15;13.45;;;12.27;;
1014;SDS011;8170;48.118;11.628;2022-08-19T07:01:18;15.00;;;13.43;;
1014;SDS011;8170;48.118;11.628;2022-08-19T07:02:25;17.05;;;15.45;;
1014;SDS011;8170;48.118;11.628;2022-08-19T07:03:29;15.00;;;13.70;;
1014;SDS011;8170;48.118;11.628;2022-08-19T07:04:37;14.98;;;13.48;;
1014;SDS011;8170;48.118;11.628;2022-08-19T07:05:43;16.50;;;15.00;;